Time;durP1;ratioP1;P1;durP2;ratioP2;P2;SDS_P1;SDS_P2;PMS_P1;PMS_P2;Temp;Humidity;BMP_temperature;BMP_pressure;BME280_temperature;BME280_humidity;BME280_pressure;Samples;Min_cycle;Max_cycle;Signal;HPM_P1;HPM_P2
2022/12/10 00:00:08;;;;;;;33.40;22.65;;;;;;;-4.63;100.00;100708.31;1027509;28;20134;-78
2022/12/10 00:00:39;;;;;;;31.50;20.85;;;;;;;-4.68;100.00;100708.66;1019725;29;20331;-79
2022/12/10 00:01:14;;;;;;;33.25;20.85;;;;;;;-4.70;100.00;100707.97;1015765;29;20303;-78
2022/12/10 00:01:46;;;;;;;28.38;19.00;;;;;;;-4.60;100.00;100708.06;1016918;29;20451;-78
2022/12/10 00:02:18;;;;;;;35.33;21.90;;;;;;;-4.53;100.00;100706.63;1016675;29;20706;-78
2022/12/10 00:02:49;;;;;;;32.50;22.08;;;;;;;-4.64;100.00;100707.50;1020133;29;20403;-78
2022/12/10 00:03:21;;;;;;;30.80;21.02;;;;;;;-4.67;100.00;100705.13;1019896;29;20299;-78
2022/12/10 00:03:53;;;;;;;32.20;21.92;;;;;;;-4.71;100.00;100708.91;1020468;28;20374;-78
2022/12/10 00:04:24;;;;;;;34.26;21.30;;;;;;;-4.71;100.00;100709.72;1027415;28;20043;-78
2022/12/10 00:04:56;;;;;;;32.08;21.26;;;;;;;-4.72;100.00;100712.47;1024221;28;20043;-79
2022/12/10 00:05:28;;;;;;;35.28;21.50;;;;;;;-4.68;100.00;100713.84;1027288;28;20047;-78
2022/12/10 00:06:01;;;;;;;33.78;21.88;;;;;;;-4.63;100.00;100708.31;1027387;28;20302;-79
2022/12/10 00:06:35;;;;;;;31.08;21.34;;;;;;;-4.58;100.00;100709.59;1023640;29;20039;-78
2022/12/10 00:07:07;;;;;;;30.13;21.90;;;;;;;-4.58;100.00;100711.38;1023872;29;20051;-79
2022/12/10 00:07:38;;;;;;;30.32;23.20;;;;;;;-4.62;100.00;100710.81;1019751;29;20307;-78
2022/12/10 00:08:10;;;;;;;37.08;22.42;;;;;;;-4.74;100.00;100712.56;1020061;29;20060;-78
2022/12/10 00:08:41;;;;;;;31.00;21.13;;;;;;;-4.77;100.00;100712.81;1023873;28;20362;-78
2022/12/10 00:09:17;;;;;;;30.85;20.60;;;;;;;-4.73;100.00;100713.41;1027827;28;20298;-79
2022/12/10 00:09:48;;;;;;;30.30;20.20;;;;;;;-4.76;100.00;100709.28;1023478;29;20321;-78
2022/12/10 00:10:20;;;;;;;25.73;19.25;;;;;;;-4.74;100.00;100712.56;1023520;29;20369;-78
2022/12/10 00:10:51;;;;;;;33.55;21.58;;;;;;;-4.85;100.00;100710.00;1023557;28;20303;-78
2022/12/10 00:11:23;;;;;;;31.40;23.05;;;;;;;-4.92;100.00;100708.03;1023795;28;20701;-78
2022/12/10 00:11:55;;;;;;;29.95;19.50;;;;;;;-4.89;100.00;100708.59;1023480;28;20306;-78
2022/12/10 00:12:26;;;;;;;28.05;19.55;;;;;;;-4.91;100.00;100715.69;1020039;29;20488;-79
2022/12/10 00:12:58;;;;;;;27.08;20.00;;;;;;;-4.99;100.00;100708.47;1019148;29;20906;-78
2022/12/10 00:13:29;;;;;;;30.55;20.33;;;;;;;-5.00;100.00;100706.00;1020011;29;20510;-78
2022/12/10 00:14:01;;;;;;;32.35;21.25;;;;;;;-4.98;100.00;100710.13;1020585;28;20347;-78
2022/12/10 00:14:32;;;;;;;35.55;21.48;;;;;;;-4.91;100.00;100707.91;1023466;29;20317;-79
2022/12/10 00:15:04;;;;;;;29.42;20.67;;;;;;;-4.87;100.00;100713.69;1023230;29;20303;-79
2022/12/10 00:15:36;;;;;;;34.58;21.48;;;;;;;-4.88;100.00;100715.44;1020169;29;20689;-78
2022/12/10 00:16:10;;;;;;;26.95;18.23;;;;;;;-4.88;100.00;100710.25;1023477;28;20353;-78
2022/12/10 00:16:41;;;;;;;29.52;19.95;;;;;;;-4.88;100.00;100710.25;1023280;29;20303;-79
2022/12/10 00:17:13;;;;;;;30.63;21.55;;;;;;;-4.86;100.00;100713.56;1024315;28;20305;-78
2022/12/10 00:17:45;;;;;;;32.10;20.15;;;;;;;-4.85;100.00;100717.81;1023566;29;20298;-78
2022/12/10 00:18:16;;;;;;;32.72;20.13;;;;;;;-4.84;100.00;100716.84;1023844;28;20785;-78
2022/12/10 00:18:48;;;;;;;35.45;20.33;;;;;;;-4.87;100.00;100711.91;1023489;29;20330;-78
2022/12/10 00:19:20;;;;;;;35.63;21.95;;;;;;;-4.88;100.00;100715.44;1020268;29;20366;-79
2022/12/10 00:19:51;;;;;;;38.40;21.33;;;;;;;-4.87;100.00;100719.69;1023335;29;20342;-79
2022/12/10 00:20:22;;;;;;;34.15;20.75;;;;;;;-4.80;100.00;100726.06;1023900;28;20287;-78
2022/12/10 00:20:54;;;;;;;29.98;20.55;;;;;;;-4.78;100.00;100721.56;1027668;28;20326;-78
2022/12/10 00:21:31;;;;;;;34.55;21.33;;;;;;;-4.81;100.00;100721.81;1027798;28;20381;-78
2022/12/10 00:22:03;;;;;;;28.52;20.23;;;;;;;-4.75;100.00;100718.72;1027632;28;20669;-78
2022/12/10 00:22:34;;;;;;;35.28;21.98;;;;;;;-4.74;100.00;100714.34;1031322;28;20313;-78
2022/12/10 00:23:06;;;;;;;32.70;21.73;;;;;;;-4.76;100.00;100717.06;1031904;28;20458;-78
2022/12/10 00:23:38;;;;;;;33.63;22.08;;;;;;;-4.79;100.00;100708.69;1026997;28;20477;-78
2022/12/10 00:24:10;;;;;;;30.67;20.17;;;;;;;-4.75;100.00;100721.31;1023573;29;20386;-78
2022/12/10 00:24:41;;;;;;;34.32;20.92;;;;;;;-4.74;100.00;100711.75;1023649;29;20314;-78
2022/12/10 00:25:13;;;;;;;31.95;21.10;;;;;;;-4.79;100.00;100714.72;1021217;28;20412;-78
2022/12/10 00:25:44;;;;;;;33.34;23.38;;;;;;;-4.82;100.00;100704.56;1027181;28;20380;-79
2022/12/10 00:26:32;;;;;;;35.05;21.42;;;;;;;-4.81;100.00;100706.22;1019675;29;20091;-78
2022/12/10 00:27:03;;;;;;;32.20;21.05;;;;;;;-4.74;100.00;100706.56;1019448;29;20814;-79
2022/12/10 00:27:35;;;;;;;37.55;21.40;;;;;;;-4.75;100.00;100704.91;1018912;29;20303;-78
2022/12/10 00:28:06;;;;;;;31.17;20.45;;;;;;;-4.76;100.00;100704.09;1022765;28;20360;-78
2022/12/10 00:28:39;;;;;;;38.15;22.45;;;;;;;-4.75;100.00;100703.13;1023439;29;20310;-79
2022/12/10 00:29:12;;;;;;;40.47;25.02;;;;;;;-4.84;100.00;100703.88;1023377;29;20303;-78
2022/12/10 00:29:43;;;;;;;35.47;23.90;;;;;;;-4.84;100.00;100710.84;1015605;29;20308;-78
2022/12/10 00:30:15;;;;;;;34.60;24.30;;;;;;;-4.84;100.00;100706.47;1018218;29;20303;-78
2022/12/10 00:30:46;;;;;;;33.55;22.00;;;;;;;-4.87;100.00;100711.91;1023282;29;20330;-78
2022/12/10 00:31:20;;;;;;;35.22;24.65;;;;;;;-4.87;100.00;100700.69;1023829;28;20647;-79
2022/12/10 00:31:52;;;;;;;35.72;23.05;;;;;;;-4.93;100.00;100712.41;1023843;29;20294;-78
2022/12/10 00:32:24;;;;;;;30.90;20.60;;;;;;;-4.89;100.00;100712.97;1019156;29;20310;-78
2022/12/10 00:32:55;;;;;;;31.88;22.30;;;;;;;-4.93;100.00;100712.41;1020043;29;20880;-78
2022/12/10 00:33:27;;;;;;;33.83;24.27;;;;;;;-5.00;100.00;100713.78;1024172;28;20855;-79
2022/12/10 00:34:01;;;;;;;36.42;23.95;;;;;;;-4.93;100.00;100712.41;1027159;28;20830;-78
2022/12/10 00:34:32;;;;;;;38.68;23.62;;;;;;;-4.97;100.00;100711.78;1030934;28;20301;-78
2022/12/10 00:35:04;;;;;;;32.30;22.20;;;;;;;-4.93;100.00;100719.31;1031582;28;20287;-79
2022/12/10 00:35:36;;;;;;;30.42;20.58;;;;;;;-4.79;100.00;100713.91;1027214;28;20490;-78
2022/12/10 00:36:13;;;;;;;35.55;21.55;;;;;;;-4.71;100.00;100720.13;1027415;28;20047;-78
2022/12/10 00:36:47;;;;;;;31.73;20.42;;;;;;;-4.61;100.00;100722.03;1019273;29;20394;-78
2022/12/10 00:37:20;;;;;;;32.22;22.83;;;;;;;-4.63;100.00;100718.72;1021248;29;20311;-78
2022/12/10 00:37:53;;;;;;;31.98;21.88;;;;;;;-4.61;100.00;100722.03;1019656;29;20339;-78
2022/12/10 00:38:25;;;;;;;31.85;23.60;;;;;;;-4.72;100.00;100726.28;1020757;29;20710;-78
2022/12/10 00:38:57;;;;;;;35.65;24.38;;;;;;;-4.70;100.00;100721.78;1019220;29;20303;-78
2022/12/10 00:39:31;;;;;;;38.15;23.92;;;;;;;-4.72;100.00;100717.66;1019643;29;20303;-78
2022/12/10 00:40:04;;;;;;;38.22;22.50;;;;;;;-4.59;100.00;100717.53;1024687;28;20733;-78
2022/12/10 00:40:36;;;;;;;39.65;23.65;;;;;;;-4.58;100.00;100721.78;1028249;28;20316;-78
2022/12/10 00:41:08;;;;;;;35.16;22.96;;;;;;;-4.67;100.00;100718.94;1027103;28;20310;-78
2022/12/10 00:41:39;;;;;;;36.97;24.00;;;;;;;-4.63;100.00;100718.72;1023929;29;20474;-78
2022/12/10 00:42:11;;;;;;;41.05;24.50;;;;;;;-4.64;100.00;100717.91;1023598;29;20389;-78
2022/12/10 00:42:42;;;;;;;35.47;23.17;;;;;;;-4.68;100.00;100717.28;1023750;28;20433;-78
2022/12/10 00:43:14;;;;;;;35.97;23.05;;;;;;;-4.79;100.00;100719.09;1020239;29;20307;-79
2022/12/10 00:43:46;;;;;;;37.58;23.05;;;;;;;-4.85;100.00;100717.81;1023558;29;20314;-78
2022/12/10 00:44:18;;;;;;;37.85;25.67;;;;;;;-4.91;100.00;100726.09;1023260;29;20302;-78
2022/12/10 00:44:50;;;;;;;36.90;21.63;;;;;;;-4.85;100.00;100719.56;1024261;28;20342;-78
2022/12/10 00:45:21;;;;;;;37.35;23.67;;;;;;;-4.95;100.00;100723.81;1024761;28;20295;-78
2022/12/10 00:45:54;;;;;;;34.25;22.27;;;;;;;-4.94;100.00;100725.47;1027513;28;20294;-78
2022/12/10 00:46:25;;;;;;;33.56;21.68;;;;;;;-4.91;100.00;100720.88;1023317;28;20323;-78
2022/12/10 00:46:57;;;;;;;34.33;22.92;;;;;;;-4.99;100.00;100718.88;1023994;28;20047;-78
2022/12/10 00:47:30;;;;;;;37.70;25.64;;;;;;;-5.03;100.00;100716.63;1027255;28;20780;-78
2022/12/10 00:48:02;;;;;;;40.67;24.67;;;;;;;-5.07;100.00;100721.25;1027987;28;20098;-78
2022/12/10 00:48:34;;;;;;;37.83;23.83;;;;;;;-5.04;100.00;100725.38;1027094;28;20317;-78
2022/12/10 00:49:05;;;;;;;48.28;25.40;;;;;;;-5.05;100.00;100718.53;1023017;29;20310;-78
2022/12/10 00:49:37;;;;;;;42.08;26.25;;;;;;;-5.06;100.00;100715.09;1019200;29;20735;-78
2022/12/10 00:50:08;;;;;;;40.78;24.17;;;;;;;-5.00;100.00;100719.81;1020122;29;20386;-78
2022/12/10 00:50:40;;;;;;;37.53;25.10;;;;;;;-5.03;100.00;100722.66;1019615;29;20442;-78
2022/12/10 00:51:17;;;;;;;34.02;22.94;;;;;;;-4.98;100.00;100720.50;1023756;28;20381;-79
2022/12/10 00:51:49;;;;;;;37.60;25.67;;;;;;;-4.91;100.00;100720.88;1023348;29;20047;-78
2022/12/10 00:52:21;;;;;;;36.25;23.02;;;;;;;-4.75;100.00;100716.13;1023603;29;20698;-78
2022/12/10 00:52:52;;;;;;;43.67;27.00;;;;;;;-4.70;100.00;100718.34;1014767;29;20375;-79
2022/12/10 00:53:25;;;;;;;37.70;24.42;;;;;;;-4.80;100.00;100722.63;1016232;29;20800;-78
2022/12/10 00:53:57;;;;;;;39.72;25.98;;;;;;;-4.91;100.00;100726.09;1019510;29;20382;-78
2022/12/10 00:54:30;;;;;;;36.94;25.24;;;;;;;-4.90;100.00;100721.72;1021162;28;20335;-78
2022/12/10 00:55:02;;;;;;;41.90;24.95;;;;;;;-4.89;100.00;100719.00;1023349;29;20528;-78
2022/12/10 00:55:33;;;;;;;42.70;27.80;;;;;;;-4.88;100.00;100725.00;1023664;28;21577;-78
2022/12/10 00:56:05;;;;;;;42.50;28.10;;;;;;;-4.86;100.00;100723.94;1027601;28;20410;-78
2022/12/10 00:56:37;;;;;;;46.04;28.54;;;;;;;-4.83;100.00;100723.72;1027360;28;20294;-78
2022/12/10 00:57:08;;;;;;;40.60;25.85;;;;;;;-4.81;100.00;100720.97;1022893;29;20047;-78
2022/12/10 00:57:40;;;;;;;45.67;28.02;;;;;;;-4.85;100.00;100710.00;1023510;28;20318;-78
2022/12/10 00:58:12;;;;;;;47.16;28.48;;;;;;;-4.82;100.00;100722.75;1019938;29;20300;-79
2022/12/10 00:58:43;;;;;;;49.08;30.04;;;;;;;-4.94;100.00;100718.50;1019700;29;20255;-78
2022/12/10 00:59:15;;;;;;;48.10;28.75;;;;;;;-4.98;100.00;100720.50;1023672;29;20051;-78
2022/12/10 00:59:47;;;;;;;44.47;26.48;;;;;;;-5.00;100.00;100717.22;1023814;28;20306;-78
2022/12/10 01:00:18;;;;;;;48.63;27.92;;;;;;;-4.88;100.00;100725.00;1027647;28;20299;-78
2022/12/10 01:00:50;;;;;;;48.78;28.77;;;;;;;-4.88;100.00;100722.41;1031720;28;20342;-78
2022/12/10 01:01:23;;;;;;;45.76;27.94;;;;;;;-4.87;100.00;100724.91;1028885;28;20302;-78
2022/12/10 01:01:55;;;;;;;46.72;26.76;;;;;;;-4.81;100.00;100721.81;1027225;28;20043;-78
2022/12/10 01:02:27;;;;;;;43.70;26.58;;;;;;;-4.73;100.00;100719.44;1026732;28;20046;-78
2022/12/10 01:02:59;;;;;;;41.85;27.75;;;;;;;-4.60;100.00;100731.47;1027486;28;20046;-79
2022/12/10 01:03:30;;;;;;;46.33;27.42;;;;;;;-4.71;100.00;100733.13;1023626;28;20396;-78
2022/12/10 01:04:08;;;;;;;41.88;29.48;;;;;;;-4.82;100.00;100725.34;1027232;28;20310;-78
2022/12/10 01:04:39;;;;;;;45.67;27.52;;;;;;;-4.80;100.00;100723.47;1019001;29;20422;-78
2022/12/10 01:05:12;;;;;;;44.72;27.83;;;;;;;-4.90;100.00;100732.94;1020900;29;20805;-78
2022/12/10 01:05:44;;;;;;;42.92;26.30;;;;;;;-4.88;100.00;100727.63;1018863;29;20308;-78
2022/12/10 01:06:19;;;;;;;43.68;26.68;;;;;;;-4.90;100.00;100732.94;1019235;29;20643;-78
2022/12/10 01:06:53;;;;;;;41.95;25.95;;;;;;;-4.87;100.00;100730.09;1015376;29;20051;-78
2022/12/10 01:07:26;;;;;;;46.13;28.42;;;;;;;-4.81;100.00;100732.19;1015252;29;20296;-78
2022/12/10 01:07:57;;;;;;;44.52;29.60;;;;;;;-4.82;100.00;100740.94;1015895;29;20307;-78
2022/12/10 01:08:29;;;;;;;44.98;27.50;;;;;;;-4.80;100.00;100733.84;1020303;29;20559;-78
2022/12/10 01:09:04;;;;;;;43.60;27.45;;;;;;;-4.65;100.00;100744.00;1023812;28;20054;-78
2022/12/10 01:09:36;;;;;;;43.00;27.40;;;;;;;-4.62;100.00;100736.78;1020325;29;20303;-78
2022/12/10 01:10:07;;;;;;;39.74;26.48;;;;;;;-4.62;100.00;100730.75;1024397;28;20393;-78
2022/12/10 01:10:39;;;;;;;48.16;31.04;;;;;;;-4.62;100.00;100734.19;1016173;29;20044;-79
2022/12/10 01:11:13;;;;;;;42.52;26.92;;;;;;;-4.69;100.00;100736.41;1015804;29;20119;-78
2022/12/10 01:11:46;;;;;;;43.85;26.88;;;;;;;-4.72;100.00;100736.66;1016175;29;20091;-78
2022/12/10 01:12:17;;;;;;;47.35;27.55;;;;;;;-4.63;100.00;100735.13;1017348;29;20304;-78
2022/12/10 01:12:49;;;;;;;41.10;26.74;;;;;;;-4.59;100.00;100740.91;1015482;29;20901;-78
2022/12/10 01:13:21;;;;;;;48.18;30.72;;;;;;;-4.60;100.00;100739.25;1015585;29;20103;-78
2022/12/10 01:13:52;;;;;;;42.30;26.86;;;;;;;-4.45;100.00;100735.44;1015519;29;20055;-78
2022/12/10 01:14:27;;;;;;;46.14;26.72;;;;;;;-4.38;100.00;100740.03;1014936;29;20225;-78
2022/12/10 01:14:59;;;;;;;48.58;30.08;;;;;;;-4.38;100.00;100744.41;1016373;29;20119;-78
2022/12/10 01:15:30;;;;;;;43.75;29.60;;;;;;;-4.43;100.00;100736.13;1019290;29;20318;-78
2022/12/10 01:16:03;;;;;;;43.03;27.20;;;;;;;-4.49;100.00;100741.81;1020119;29;20778;-78
2022/12/10 01:16:35;;;;;;;42.20;26.02;;;;;;;-4.44;100.00;100737.09;1019984;29;20299;-79
2022/12/10 01:17:07;;;;;;;46.48;28.62;;;;;;;-4.34;100.00;100730.22;1020334;29;20306;-78
2022/12/10 01:17:38;;;;;;;44.55;27.85;;;;;;;-4.29;100.00;100730.66;1019031;28;20067;-78
2022/12/10 01:18:10;;;;;;;46.20;30.02;;;;;;;-4.25;100.00;100734.66;1019760;29;20319;-78
2022/12/10 01:18:42;;;;;;;53.20;30.20;;;;;;;-4.29;100.00;100743.66;1023979;28;20307;-78
2022/12/10 01:19:13;;;;;;;50.36;30.82;;;;;;;-4.18;100.00;100735.00;1019168;29;20059;-78
2022/12/10 01:19:45;;;;;;;48.86;27.94;;;;;;;-4.11;100.00;100739.59;1015639;29;20509;-78
2022/12/10 01:20:16;;;;;;;47.20;31.24;;;;;;;-4.16;100.00;100733.91;1019214;29;20168;-78
2022/12/10 01:20:48;;;;;;;50.08;30.54;;;;;;;-4.08;100.00;100741.94;1016602;29;20499;-78
2022/12/10 01:21:20;;;;;;;49.45;29.27;;;;;;;-4.03;100.00;100738.97;1023476;28;20134;-78
2022/12/10 01:21:53;;;;;;;49.20;29.70;;;;;;;-3.91;100.00;100742.34;1023304;29;20353;-78
2022/12/10 01:22:24;;;;;;;46.44;28.82;;;;;;;-3.97;100.00;100740.25;1021418;29;20107;-78
2022/12/10 01:22:56;;;;;;;50.06;29.52;;;;;;;-4.12;100.00;100740.53;1023823;28;20125;-78
2022/12/10 01:23:28;;;;;;;51.35;29.35;;;;;;;-4.10;100.00;100746.44;1023688;28;20043;-78
2022/12/10 01:24:00;;;;;;;47.96;29.46;;;;;;;-4.11;100.00;100736.16;1023402;29;20393;-78
2022/12/10 01:24:32;;;;;;;45.95;28.67;;;;;;;-4.09;100.00;100742.91;1018959;29;20048;-78
2022/12/10 01:25:04;;;;;;;54.45;31.25;;;;;;;-4.08;100.00;100744.53;1015336;29;20794;-78
2022/12/10 01:25:35;;;;;;;48.28;31.18;;;;;;;-4.03;100.00;100743.34;1020160;29;20307;-78
2022/12/10 01:26:10;;;;;;;53.72;28.73;;;;;;;-4.02;100.00;100745.81;1021558;28;20624;-78
2022/12/10 01:26:42;;;;;;;50.94;30.32;;;;;;;-4.07;100.00;100748.81;1024308;28;20314;-78
2022/12/10 01:27:13;;;;;;;51.65;30.02;;;;;;;-4.07;100.00;100747.97;1023138;29;20074;-78
2022/12/10 01:27:45;;;;;;;47.65;29.27;;;;;;;-4.08;100.00;100747.16;1023143;29;20294;-78
2022/12/10 01:28:16;;;;;;;52.55;29.90;;;;;;;-3.93;100.00;100744.25;1023301;29;20365;-78
2022/12/10 01:28:49;;;;;;;52.28;31.80;;;;;;;-4.13;100.00;100749.28;1019509;29;20318;-78
2022/12/10 01:29:21;;;;;;;49.06;30.52;;;;;;;-4.17;100.00;100745.28;1023301;29;20334;-78
2022/12/10 01:29:52;;;;;;;45.15;29.50;;;;;;;-4.20;100.00;100748.13;1023227;29;20586;-78
2022/12/10 01:30:24;;;;;;;50.97;29.08;;;;;;;-4.17;100.00;100747.88;1023643;28;20381;-78
2022/12/10 01:30:55;;;;;;;50.53;29.50;;;;;;;-4.06;100.00;100745.25;1023817;28;20369;-78
2022/12/10 01:31:33;;;;;;;52.56;30.34;;;;;;;-3.95;100.00;100748.75;1019502;29;20311;-78
2022/12/10 01:32:04;;;;;;;42.98;28.10;;;;;;;-3.86;100.00;100755.78;1011342;29;20052;-78
2022/12/10 01:32:36;;;;;;;51.96;30.28;;;;;;;-3.97;100.00;100742.84;1015364;29;20097;-78
2022/12/10 01:33:07;;;;;;;52.47;29.48;;;;;;;-4.07;100.00;100754.00;1017813;29;20184;-78
2022/12/10 01:33:40;;;;;;;45.88;28.50;;;;;;;-4.18;100.00;100755.81;1024307;28;20872;-78
2022/12/10 01:34:13;;;;;;;45.58;27.84;;;;;;;-4.23;100.00;100748.38;1027087;28;20405;-78
2022/12/10 01:34:45;;;;;;;49.74;30.18;;;;;;;-4.24;100.00;100746.72;1023043;29;20044;-78
2022/12/10 01:35:16;;;;;;;43.25;27.92;;;;;;;-4.13;100.00;100749.28;1023495;29;20039;-78
2022/12/10 01:35:48;;;;;;;42.88;28.18;;;;;;;-4.00;100.00;100749.13;1022829;29;20815;-78
2022/12/10 01:36:23;;;;;;;46.24;29.56;;;;;;;-4.11;100.00;100747.41;1022903;28;20091;-78
2022/12/10 01:36:54;;;;;;;46.30;28.30;;;;;;;-4.08;100.00;100751.53;1023558;28;20054;-78
2022/12/10 01:37:26;;;;;;;49.06;28.92;;;;;;;-4.07;100.00;100751.41;1015232;29;20337;-78
2022/12/10 01:37:57;;;;;;;45.97;28.88;;;;;;;-4.23;100.00;100753.56;1016106;29;20199;-78
2022/12/10 01:38:29;;;;;;;42.16;27.90;;;;;;;-4.23;100.00;100756.19;1016085;29;20837;-78
2022/12/10 01:39:03;;;;;;;39.28;26.50;;;;;;;-4.34;100.00;100748.41;1019364;29;20062;-78
2022/12/10 01:39:35;;;;;;;43.83;28.30;;;;;;;-4.34;100.00;100751.03;1015832;29;20050;-78
2022/12/10 01:40:07;;;;;;;43.96;27.48;;;;;;;-4.50;100.00;100753.16;1020024;29;20720;-78
2022/12/10 01:40:39;;;;;;;41.25;27.83;;;;;;;-4.51;100.00;100744.53;1020098;29;20047;-78
2022/12/10 01:41:15;;;;;;;43.70;26.75;;;;;;;-4.47;100.00;100755.53;1019840;29;20857;-78
2022/12/10 01:41:53;;;;;;;41.96;27.70;;;;;;;-4.50;100.00;100747.97;1019186;29;20314;-78
2022/12/10 01:42:24;;;;;;;44.47;27.15;;;;;;;-4.45;100.00;100754.44;1015288;29;20136;-78
2022/12/10 01:42:56;;;;;;;44.40;28.45;;;;;;;-4.45;100.00;100758.81;1017234;29;20639;-78
2022/12/10 01:43:50;;;;;;;47.14;27.84;;;;;;;-4.48;100.00;100746.06;1022370;28;20447;-78
2022/12/10 01:44:21;;;;;;;44.40;28.58;;;;;;;-4.50;100.00;100755.78;1024760;28;20108;-78
2022/12/10 01:44:58;;;;;;;41.30;26.33;;;;;;;-4.63;100.00;100752.50;1027012;28;20296;-78
2022/12/10 01:45:31;;;;;;;42.17;26.08;;;;;;;-4.67;100.00;100755.31;1019096;29;20417;-78
2022/12/10 01:46:03;;;;;;;40.30;25.90;;;;;;;-4.68;100.00;100752.84;1016107;29;20743;-78
2022/12/10 01:46:39;;;;;;;34.16;23.70;;;;;;;-4.70;100.00;100750.38;1019511;29;20142;-78
2022/12/10 01:47:11;;;;;;;41.58;24.52;;;;;;;-4.60;100.00;100757.47;1022176;28;20083;-78
2022/12/10 01:47:42;;;;;;;38.52;24.96;;;;;;;-4.65;100.00;100757.81;1027970;28;20301;-78
2022/12/10 01:48:14;;;;;;;40.68;27.04;;;;;;;-4.53;100.00;100756.84;1022764;29;20627;-78
2022/12/10 01:48:46;;;;;;;38.58;26.50;;;;;;;-4.49;100.00;100753.06;1019310;29;20087;-79
2022/12/10 01:49:20;;;;;;;42.70;26.00;;;;;;;-4.60;100.00;100760.88;1015183;29;20131;-78
2022/12/10 01:49:52;;;;;;;41.88;27.08;;;;;;;-4.59;100.00;100756.50;1008281;29;20328;-78
2022/12/10 01:50:23;;;;;;;37.58;25.58;;;;;;;-4.61;100.00;100763.59;1012041;29;20783;-78
2022/12/10 01:50:55;;;;;;;40.50;25.32;;;;;;;-4.63;100.00;100752.50;1020062;29;20044;-78
2022/12/10 01:51:29;;;;;;;40.60;24.90;;;;;;;-4.64;100.00;100753.44;1023712;28;20525;-78
2022/12/10 01:52:01;;;;;;;42.36;28.02;;;;;;;-4.71;100.00;100751.31;1023225;29;20385;-78
2022/12/10 01:52:33;;;;;;;43.10;27.02;;;;;;;-4.61;100.00;100755.81;1016491;29;20123;-78
2022/12/10 01:53:05;;;;;;;38.76;25.10;;;;;;;-4.58;100.00;100758.16;1012850;29;20390;-78
2022/12/10 01:53:37;;;;;;;40.12;26.08;;;;;;;-4.70;100.00;100754.72;1015248;29;20115;-78
2022/12/10 01:54:12;;;;;;;42.33;27.13;;;;;;;-4.72;100.00;100762.66;1016197;29;20129;-78
2022/12/10 01:54:45;;;;;;;43.28;26.38;;;;;;;-4.73;100.00;100760.16;1020623;29;20722;-78
2022/12/10 01:55:43;;;;;;;40.60;27.00;;;;;;;-4.76;100.00;100757.81;1017028;29;20299;-78
2022/12/10 01:56:18;;;;;;;40.10;25.14;;;;;;;-4.74;100.00;100761.13;1017778;29;20296;-78
2022/12/10 01:56:59;;;;;;;35.50;22.85;;;;;;;-4.76;100.00;100758.66;1018749;29;20036;-78
2022/12/10 01:57:30;;;;;;;40.60;26.35;;;;;;;-4.48;100.00;100769.47;1015332;29;20307;-78
2022/12/10 01:58:02;;;;;;;42.52;27.48;;;;;;;-4.46;100.00;100763.19;1012491;29;20556;-78
2022/12/10 01:58:33;;;;;;;45.62;27.32;;;;;;;-4.34;100.00;100766.63;1016600;29;20142;-78
2022/12/10 01:59:05;;;;;;;49.24;27.66;;;;;;;-4.36;100.00;100764.13;1015949;29;20059;-78
2022/12/10 01:59:38;;;;;;;45.44;26.04;;;;;;;-4.39;100.00;100766.13;1015195;29;20066;-78
2022/12/10 02:00:10;;;;;;;45.12;27.48;;;;;;;-4.46;100.00;100757.19;1015729;29;20135;-78
2022/12/10 02:00:51;;;;;;;40.65;26.52;;;;;;;-4.57;100.00;100762.41;1016733;29;20048;-78
2022/12/10 02:01:28;;;;;;;43.22;26.56;;;;;;;-4.61;100.00;100763.59;1013502;29;20312;-78
2022/12/10 02:02:08;;;;;;;41.00;25.08;;;;;;;-4.62;100.00;100759.34;1018112;29;20075;-78
2022/12/10 02:02:54;;;;;;;40.42;26.63;;;;;;;-4.42;100.00;100763.78;1022845;29;20122;-78
2022/12/10 02:03:53;;;;;;;42.84;26.72;;;;;;;-4.43;100.00;100759.53;1027080;28;20053;-78
2022/12/10 02:04:52;;;;;;;39.52;24.12;;;;;;;-4.50;100.00;100760.97;1026879;28;20130;-78
2022/12/10 02:05:32;;;;;;;40.98;24.36;;;;;;;-4.52;100.00;100762.88;1027235;28;20512;-78
2022/12/10 02:06:35;;;;;;;38.70;25.30;;;;;;;-4.60;100.00;100760.88;1027414;28;20121;-78
2022/12/10 02:07:25;;;;;;;37.68;22.50;;;;;;;-4.63;100.00;100762.91;1024630;28;20035;-77
2022/12/10 02:08:05;;;;;;;40.34;23.70;;;;;;;-4.60;100.00;100763.47;1019364;29;20131;-78
2022/12/10 02:08:58;;;;;;;40.80;25.33;;;;;;;-4.55;100.00;100761.34;1015315;29;20040;-78
2022/12/10 02:09:56;;;;;;;38.70;23.80;;;;;;;-4.27;100.00;100756.53;1017506;28;20184;-78
2022/12/10 02:10:30;;;;;;;43.40;24.20;;;;;;;-4.36;100.00;100758.13;1024988;28;20062;-78
2022/12/10 02:11:27;;;;;;;41.25;25.38;;;;;;;-4.41;100.00;100763.66;1027080;28;20881;-78
2022/12/10 02:12:08;;;;;;;41.78;25.56;;;;;;;-4.39;100.00;100755.72;1023079;28;20336;-78
2022/12/10 02:12:47;;;;;;;44.82;27.00;;;;;;;-4.48;100.00;100759.91;1026930;28;20146;-78
2022/12/10 02:13:37;;;;;;;39.45;26.55;;;;;;;-4.42;100.00;100758.59;1027289;28;20409;-78
2022/12/10 02:14:17;;;;;;;37.95;23.20;;;;;;;-4.41;100.00;100757.63;1022190;29;20306;-78
2022/12/10 02:15:00;;;;;;;45.90;26.52;;;;;;;-4.50;100.00;100755.78;1019052;29;20303;-78
2022/12/10 02:15:37;;;;;;;41.83;24.45;;;;;;;-4.54;100.00;100756.97;1019084;29;20047;-78
2022/12/10 02:16:14;;;;;;;40.55;24.83;;;;;;;-4.52;100.00;100762.88;1019403;29;20315;-78
2022/12/10 02:16:56;;;;;;;38.83;24.52;;;;;;;-4.45;100.00;100759.66;1011462;29;20332;-78
2022/12/10 02:17:36;;;;;;;40.20;25.20;;;;;;;-4.45;100.00;100764.84;1010584;29;20315;-78
2022/12/10 02:18:29;;;;;;;42.05;25.15;;;;;;;-4.50;100.00;100760.97;1014529;29;20048;-78
2022/12/10 02:19:07;;;;;;;37.53;23.83;;;;;;;-4.65;100.00;100759.59;1019754;29;20773;-79
2022/12/10 02:19:43;;;;;;;42.18;25.28;;;;;;;-4.55;100.00;100763.13;1019095;29;20087;-78
2022/12/10 02:20:30;;;;;;;40.66;26.12;;;;;;;-4.59;100.00;100756.50;1021014;29;20043;-78
2022/12/10 02:21:08;;;;;;;37.80;23.26;;;;;;;-4.43;100.00;100751.72;1017898;29;20039;-78
2022/12/10 02:21:41;;;;;;;47.50;26.92;;;;;;;-4.46;100.00;100752.81;1014549;29;20116;-78
2022/12/10 02:22:14;;;;;;;41.80;26.68;;;;;;;-4.54;100.00;100746.56;1011398;29;20040;-78
2022/12/10 02:22:49;;;;;;;39.55;26.33;;;;;;;-4.50;100.00;100750.56;1015239;29;20183;-78
2022/12/10 02:23:28;;;;;;;38.32;26.12;;;;;;;-4.38;100.00;100749.63;1019173;29;20355;-79
2022/12/10 02:24:03;;;;;;;43.02;26.08;;;;;;;-4.37;100.00;100752.09;1013333;29;20048;-78
2022/12/10 02:24:36;;;;;;;44.60;26.26;;;;;;;-4.49;100.00;100749.63;1015222;29;20391;-78
2022/12/10 02:25:12;;;;;;;43.48;26.22;;;;;;;-4.48;100.00;100753.88;1011083;29;20044;-78
2022/12/10 02:26:05;;;;;;;47.47;27.35;;;;;;;-4.63;100.00;100752.50;1015010;29;20164;-78
2022/12/10 02:26:50;;;;;;;39.88;24.96;;;;;;;-4.63;100.00;100750.72;1019069;29;20333;-78
2022/12/10 02:27:32;;;;;;;40.15;23.83;;;;;;;-4.72;100.00;100746.22;1019853;28;20059;-78
2022/12/10 02:28:25;;;;;;;39.03;24.77;;;;;;;-4.72;100.00;100757.44;1018528;29;20307;-78
2022/12/10 02:29:11;;;;;;;44.33;25.85;;;;;;;-4.53;100.00;100749.03;1019083;29;20314;-78
2022/12/10 02:29:44;;;;;;;40.78;26.63;;;;;;;-4.65;100.00;100751.81;1019982;29;20814;-78
2022/12/10 02:30:15;;;;;;;40.46;24.56;;;;;;;-4.58;100.00;100745.16;1015069;29;20304;-78
2022/12/10 02:30:49;;;;;;;43.05;25.50;;;;;;;-4.63;100.00;100752.50;1019915;29;20065;-78
2022/12/10 02:31:26;;;;;;;46.62;26.90;;;;;;;-4.60;100.00;100747.06;1015335;29;20304;-78
2022/12/10 02:32:11;;;;;;;39.30;26.22;;;;;;;-4.65;100.00;100741.41;1012612;29;20060;-78
2022/12/10 02:32:44;;;;;;;46.60;27.96;;;;;;;-4.78;100.00;100750.16;1011225;29;20174;-78
2022/12/10 02:33:18;;;;;;;45.80;28.30;;;;;;;-4.84;100.00;100744.59;1014615;29;20040;-78
2022/12/10 02:33:53;;;;;;;49.95;27.48;;;;;;;-4.81;100.00;100746.97;1010449;29;20314;-78